sensor_id;sensor_type;location;lat;lon;timestamp;pressure;altitude;pressure_sealevel;temperature
78669;BMP280;67984;45.118;20.724;2023-06-26T00:05:57;100353.22;;;19.55
78669;BMP280;67984;45.118;20.724;2023-06-26T00:16:00;100356.84;;;19.39
78669;BMP280;67984;45.118;20.724;2023-06-26T00:26:04;100358.50;;;19.24
78669;BMP280;67984;45.118;20.724;2023-06-26T00:36:05;100357.59;;;19.18
78669;BMP280;67984;45.118;20.724;2023-06-26T00:46:08;100348.41;;;19.10
78669;BMP280;67984;45.118;20.724;2023-06-26T00:56:10;100359.56;;;19.06
78669;BMP280;67984;45.118;20.724;2023-06-26T01:06:13;100352.56;;;18.99
78669;BMP280;67984;45.118;20.724;2023-06-26T01:16:16;100346.41;;;18.93
78669;BMP280;67984;45.118;20.724;2023-06-26T01:26:21;100329.09;;;18.80
78669;BMP280;67984;45.118;20.724;2023-06-26T01:36:22;100339.13;;;18.63
78669;BMP280;67984;45.118;20.724;2023-06-26T01:46:39;100338.81;;;18.49
78669;BMP280;67984;45.118;20.724;2023-06-26T01:56:43;100329.94;;;18.43
78669;BMP280;67984;45.118;20.724;2023-06-26T02:06:45;100321.81;;;18.38
78669;BMP280;67984;45.118;20.724;2023-06-26T02:16:46;100319.09;;;18.29
78669;BMP280;67984;45.118;20.724;2023-06-26T02:26:46;100328.41;;;18.21
78669;BMP280;67984;45.118;20.724;2023-06-26T02:36:47;100323.34;;;18.14
78669;BMP280;67984;45.118;20.724;2023-06-26T02:46:48;100329.91;;;18.09
78669;BMP280;67984;45.118;20.724;2023-06-26T02:56:50;100324.31;;;18.07
78669;BMP280;67984;45.118;20.724;2023-06-26T03:06:56;100332.34;;;18.04
78669;BMP280;67984;45.118;20.724;2023-06-26T03:16:57;100336.97;;;18.12
78669;BMP280;67984;45.118;20.724;2023-06-26T03:27:01;100329.34;;;18.14
78669;BMP280;67984;45.118;20.724;2023-06-26T03:37:02;100335.69;;;18.29
78669;BMP280;67984;45.118;20.724;2023-06-26T03:47:03;100340.94;;;18.54
78669;BMP280;67984;45.118;20.724;2023-06-26T03:57:04;100338.72;;;18.74
78669;BMP280;67984;45.118;20.724;2023-06-26T04:07:05;100343.00;;;18.93
78669;BMP280;67984;45.118;20.724;2023-06-26T04:17:07;100342.56;;;19.15
78669;BMP280;67984;45.118;20.724;2023-06-26T04:27:08;100341.13;;;19.45
78669;BMP280;67984;45.118;20.724;2023-06-26T04:37:09;100349.22;;;20.55
78669;BMP280;67984;45.118;20.724;2023-06-26T04:47:09;100349.44;;;21.84
78669;BMP280;67984;45.118;20.724;2023-06-26T04:57:10;100355.50;;;22.45
78669;BMP280;67984;45.118;20.724;2023-06-26T05:07:13;100371.97;;;22.20
78669;BMP280;67984;45.118;20.724;2023-06-26T05:17:14;100369.09;;;22.09
78669;BMP280;67984;45.118;20.724;2023-06-26T05:27:15;100365.00;;;22.00
78669;BMP280;67984;45.118;20.724;2023-06-26T05:37:22;100366.84;;;22.08
78669;BMP280;67984;45.118;20.724;2023-06-26T05:47:22;100373.66;;;22.32
78669;BMP280;67984;45.118;20.724;2023-06-26T05:57:24;100379.31;;;22.63
78669;BMP280;67984;45.118;20.724;2023-06-26T06:07:25;100377.31;;;22.72
78669;BMP280;67984;45.118;20.724;2023-06-26T06:17:26;100373.91;;;23.01
78669;BMP280;67984;45.118;20.724;2023-06-26T06:27:27;100375.00;;;23.23
78669;BMP280;67984;45.118;20.724;2023-06-26T06:37:28;100384.75;;;23.40
78669;BMP280;67984;45.118;20.724;2023-06-26T06:47:32;100374.84;;;23.60
78669;BMP280;67984;45.118;20.724;2023-06-26T06:57:33;100394.06;;;23.84
78669;BMP280;67984;45.118;20.724;2023-06-26T07:07:38;100373.00;;;24.06
78669;BMP280;67984;45.118;20.724;2023-06-26T07:17:39;100375.81;;;24.37
78669;BMP280;67984;45.118;20.724;2023-06-26T07:27:41;100375.66;;;24.71
78669;BMP280;67984;45.118;20.724;2023-06-26T07:37:42;100373.44;;;24.94
78669;BMP280;67984;45.118;20.724;2023-06-26T07:47:48;100370.72;;;25.25
78669;BMP280;67984;45.118;20.724;2023-06-26T07:57:52;100380.81;;;25.46
78669;BMP280;67984;45.118;20.724;2023-06-26T08:07:55;100385.63;;;25.78
78669;BMP280;67984;45.118;20.724;2023-06-26T08:17:56;100396.69;;;26.13
78669;BMP280;67984;45.118;20.724;2023-06-26T08:27:56;100390.66;;;26.40
78669;BMP280;67984;45.118;20.724;2023-06-26T08:37:57;100381.41;;;26.84
78669;BMP280;67984;45.118;20.724;2023-06-26T08:48:00;100376.06;;;27.01
78669;BMP280;67984;45.118;20.724;2023-06-26T08:58:01;100377.47;;;27.18
78669;BMP280;67984;45.118;20.724;2023-06-26T09:08:02;100371.34;;;27.45
78669;BMP280;67984;45.118;20.724;2023-06-26T09:18:04;100367.34;;;27.62
78669;BMP280;67984;45.118;20.724;2023-06-26T09:28:05;100359.13;;;27.94
78669;BMP280;67984;45.118;20.724;2023-06-26T09:38:06;100381.66;;;28.26
78669;BMP280;67984;45.118;20.724;2023-06-26T09:48:07;100374.47;;;28.39
78669;BMP280;67984;45.118;20.724;2023-06-26T09:58:10;100370.38;;;28.62
78669;BMP280;67984;45.118;20.724;2023-06-26T10:08:15;100367.13;;;28.75
78669;BMP280;67984;45.118;20.724;2023-06-26T10:18:17;100362.06;;;28.89
78669;BMP280;67984;45.118;20.724;2023-06-26T10:28:19;100365.41;;;29.19
78669;BMP280;67984;45.118;20.724;2023-06-26T10:38:21;100355.63;;;29.58
78669;BMP280;67984;45.118;20.724;2023-06-26T10:48:29;100350.63;;;29.49
78669;BMP280;67984;45.118;20.724;2023-06-26T11:08:50;100343.25;;;29.68
78669;BMP280;67984;45.118;20.724;2023-06-26T11:18:58;100328.63;;;29.82
78669;BMP280;67984;45.118;20.724;2023-06-26T11:28:58;100338.66;;;30.00
78669;BMP280;67984;45.118;20.724;2023-06-26T11:39:00;100327.88;;;30.12
78669;BMP280;67984;45.118;20.724;2023-06-26T11:49:05;100330.22;;;30.34
78669;BMP280;67984;45.118;20.724;2023-06-26T11:59:08;100324.75;;;30.91
78669;BMP280;67984;45.118;20.724;2023-06-26T12:09:10;100315.53;;;30.74
78669;BMP280;67984;45.118;20.724;2023-06-26T12:19:12;100315.53;;;30.99
78669;BMP280;67984;45.118;20.724;2023-06-26T12:29:16;100310.25;;;30.68
78669;BMP280;67984;45.118;20.724;2023-06-26T12:39:19;100296.31;;;30.90
78669;BMP280;67984;45.118;20.724;2023-06-26T12:49:34;100299.53;;;31.01
78669;BMP280;67984;45.118;20.724;2023-06-26T12:59:38;100296.84;;;30.88
78669;BMP280;67984;45.118;20.724;2023-06-26T13:09:39;100292.47;;;30.98
78669;BMP280;67984;45.118;20.724;2023-06-26T13:19:41;100291.22;;;31.12
78669;BMP280;67984;45.118;20.724;2023-06-26T13:29:42;100293.25;;;30.73
78669;BMP280;67984;45.118;20.724;2023-06-26T13:39:42;100298.31;;;30.25
78669;BMP280;67984;45.118;20.724;2023-06-26T13:49:49;100298.72;;;30.29
78669;BMP280;67984;45.118;20.724;2023-06-26T13:59:50;100286.53;;;30.54
78669;BMP280;67984;45.118;20.724;2023-06-26T14:09:51;100289.66;;;31.04
78669;BMP280;67984;45.118;20.724;2023-06-26T14:19:52;100290.63;;;30.42
78669;BMP280;67984;45.118;20.724;2023-06-26T14:29:52;100287.47;;;30.12
78669;BMP280;67984;45.118;20.724;2023-06-26T14:39:53;100289.53;;;30.06
78669;BMP280;67984;45.118;20.724;2023-06-26T14:49:54;100287.72;;;29.83
78669;BMP280;67984;45.118;20.724;2023-06-26T14:59:54;100277.94;;;29.67
78669;BMP280;67984;45.118;20.724;2023-06-26T15:09:55;100265.00;;;29.48
78669;BMP280;67984;45.118;20.724;2023-06-26T15:19:57;100260.22;;;29.41
78669;BMP280;67984;45.118;20.724;2023-06-26T15:29:59;100261.81;;;29.49
78669;BMP280;67984;45.118;20.724;2023-06-26T15:39:59;100258.50;;;29.74
78669;BMP280;67984;45.118;20.724;2023-06-26T15:50:00;100246.00;;;29.90
78669;BMP280;67984;45.118;20.724;2023-06-26T16:00:02;100245.75;;;29.75
78669;BMP280;67984;45.118;20.724;2023-06-26T16:10:13;100240.84;;;30.04
78669;BMP280;67984;45.118;20.724;2023-06-26T16:20:13;100233.84;;;30.53
78669;BMP280;67984;45.118;20.724;2023-06-26T16:30:14;100230.69;;;30.75
78669;BMP280;67984;45.118;20.724;2023-06-26T16:40:16;100224.41;;;30.46
78669;BMP280;67984;45.118;20.724;2023-06-26T16:50:16;100223.38;;;30.37
78669;BMP280;67984;45.118;20.724;2023-06-26T17:00:20;100218.56;;;32.73
78669;BMP280;67984;45.118;20.724;2023-06-26T17:10:21;100231.09;;;34.79
78669;BMP280;67984;45.118;20.724;2023-06-26T17:20:21;100234.25;;;34.30
78669;BMP280;67984;45.118;20.724;2023-06-26T17:30:22;100224.78;;;35.25
78669;BMP280;67984;45.118;20.724;2023-06-26T17:40:23;100221.47;;;32.82
78669;BMP280;67984;45.118;20.724;2023-06-26T17:50:24;100224.50;;;32.29
78669;BMP280;67984;45.118;20.724;2023-06-26T18:00:25;100221.78;;;32.29
78669;BMP280;67984;45.118;20.724;2023-06-26T18:10:25;100231.16;;;30.53
78669;BMP280;67984;45.118;20.724;2023-06-26T18:20:26;100240.28;;;28.94
78669;BMP280;67984;45.118;20.724;2023-06-26T18:30:27;100236.88;;;27.99
78669;BMP280;67984;45.118;20.724;2023-06-26T18:40:27;100257.00;;;27.42
78669;BMP280;67984;45.118;20.724;2023-06-26T18:50:28;100254.03;;;26.94
78669;BMP280;67984;45.118;20.724;2023-06-26T19:00:29;100265.31;;;26.44
78669;BMP280;67984;45.118;20.724;2023-06-26T19:10:31;100277.19;;;26.05
78669;BMP280;67984;45.118;20.724;2023-06-26T19:20:32;100290.53;;;25.72
78669;BMP280;67984;45.118;20.724;2023-06-26T19:30:32;100292.84;;;25.43
78669;BMP280;67984;45.118;20.724;2023-06-26T19:40:35;100297.50;;;25.12
78669;BMP280;67984;45.118;20.724;2023-06-26T19:50:36;100304.41;;;24.88
78669;BMP280;67984;45.118;20.724;2023-06-26T20:00:36;100299.09;;;24.62
78669;BMP280;67984;45.118;20.724;2023-06-26T20:10:38;100305.22;;;24.38
78669;BMP280;67984;45.118;20.724;2023-06-26T20:20:39;100298.19;;;24.15
78669;BMP280;67984;45.118;20.724;2023-06-26T20:30:40;100295.75;;;23.92
78669;BMP280;67984;45.118;20.724;2023-06-26T20:40:41;100293.75;;;23.67
78669;BMP280;67984;45.118;20.724;2023-06-26T20:50:42;100299.47;;;23.40
78669;BMP280;67984;45.118;20.724;2023-06-26T21:00:44;100305.59;;;23.12
78669;BMP280;67984;45.118;20.724;2023-06-26T21:10:44;100301.22;;;22.95
78669;BMP280;67984;45.118;20.724;2023-06-26T21:20:45;100297.53;;;22.78
78669;BMP280;67984;45.118;20.724;2023-06-26T21:30:46;100307.47;;;22.63
78669;BMP280;67984;45.118;20.724;2023-06-26T21:40:47;100296.72;;;22.43
78669;BMP280;67984;45.118;20.724;2023-06-26T21:50:47;100302.06;;;22.20
78669;BMP280;67984;45.118;20.724;2023-06-26T22:00:48;100296.94;;;21.93
78669;BMP280;67984;45.118;20.724;2023-06-26T22:10:49;100299.56;;;21.79
78669;BMP280;67984;45.118;20.724;2023-06-26T22:20:50;100296.00;;;21.58
78669;BMP280;67984;45.118;20.724;2023-06-26T22:30:50;100299.72;;;21.52
78669;BMP280;67984;45.118;20.724;2023-06-26T22:40:51;100296.25;;;21.28
78669;BMP280;67984;45.118;20.724;2023-06-26T22:50:52;100301.69;;;21.02
78669;BMP280;67984;45.118;20.724;2023-06-26T23:00:54;100303.03;;;20.97
78669;BMP280;67984;45.118;20.724;2023-06-26T23:10:55;100291.28;;;20.80
78669;BMP280;67984;45.118;20.724;2023-06-26T23:20:56;100282.25;;;20.78
78669;BMP280;67984;45.118;20.724;2023-06-26T23:30:56;100282.00;;;20.67
78669;BMP280;67984;45.118;20.724;2023-06-26T23:40:58;100281.56;;;20.59
78669;BMP280;67984;45.118;20.724;2023-06-26T23:50:58;100283.50;;;20.50
